createdAt,value
2017-12-23T00:01:43.762Z,37.50
2017-12-23T00:04:11.994Z,37.60
2017-12-23T00:06:40.251Z,37.60
2017-12-23T00:09:09.330Z,37.60
2017-12-23T00:11:37.602Z,37.60
2017-12-23T00:14:05.920Z,37.20
2017-12-23T00:16:34.147Z,37.60
2017-12-23T00:19:03.175Z,37.60
2017-12-23T00:21:31.424Z,37.50
2017-12-23T00:24:00.490Z,37.50
2017-12-23T00:26:28.749Z,37.50
2017-12-23T00:28:57.050Z,37.50
2017-12-23T00:31:25.276Z,37.20
2017-12-23T00:33:54.457Z,37.30
2017-12-23T00:36:22.786Z,37.30
2017-12-23T00:38:51.058Z,37.30
2017-12-23T00:41:19.335Z,37.30
2017-12-23T00:43:47.683Z,37.20
2017-12-23T00:46:15.987Z,37.30
2017-12-23T00:51:19.280Z,37.30
2017-12-23T00:53:48.305Z,37.30
2017-12-23T00:56:16.916Z,37.20
2017-12-23T00:58:45.213Z,37.10
2017-12-23T01:01:14.271Z,37.10
2017-12-23T01:03:42.549Z,37.00
2017-12-23T01:06:10.873Z,37.50
2017-12-23T01:08:39.107Z,37.20
2017-12-23T01:11:08.356Z,37.90
2017-12-23T01:13:36.683Z,37.20
2017-12-23T01:16:05.793Z,37.10
2017-12-23T01:18:36.272Z,36.90
2017-12-23T01:21:04.564Z,36.90
2017-12-23T01:23:32.928Z,37.00
2017-12-23T01:26:01.179Z,37.00
2017-12-23T01:28:29.468Z,36.90
2017-12-23T01:30:57.709Z,36.80
2017-12-23T01:33:25.976Z,36.90
2017-12-23T01:35:54.997Z,36.80
2017-12-23T01:38:23.334Z,36.70
2017-12-23T01:40:51.615Z,36.70
2017-12-23T01:43:20.656Z,36.70
2017-12-23T01:49:00.080Z,36.80
2017-12-23T01:51:29.717Z,37.30
2017-12-23T01:54:03.883Z,36.70
2017-12-23T01:56:35.164Z,36.70
2017-12-23T01:59:07.222Z,36.60
2017-12-23T02:01:35.557Z,36.60
2017-12-23T02:04:04.992Z,36.60
2017-12-23T02:06:34.352Z,36.70
2017-12-23T02:09:10.556Z,36.60
2017-12-23T02:11:40.215Z,36.60
2017-12-23T02:14:10.000Z,36.40
2017-12-23T02:16:38.422Z,36.50
2017-12-23T02:19:06.881Z,36.40
2017-12-23T02:21:39.552Z,36.50
2017-12-23T02:24:08.064Z,36.40
2017-12-23T02:26:38.457Z,36.50
2017-12-23T02:29:15.774Z,36.50
2017-12-23T02:35:12.223Z,36.30
2017-12-23T02:37:45.299Z,36.60
2017-12-23T02:47:26.077Z,37.00
2017-12-23T02:50:00.735Z,36.90
2017-12-23T02:52:40.115Z,36.90
2017-12-23T02:55:08.449Z,36.80
2017-12-23T02:57:42.005Z,36.70
2017-12-23T03:00:11.554Z,36.70
2017-12-23T03:02:45.610Z,36.70
2017-12-23T03:05:14.675Z,36.60
2017-12-23T03:07:49.440Z,36.60
2017-12-23T03:10:18.827Z,36.70
2017-12-23T03:12:47.109Z,36.60
2017-12-23T03:15:18.841Z,36.70
2017-12-23T03:17:47.406Z,36.70
2017-12-23T03:20:18.015Z,36.50
2017-12-23T03:22:51.011Z,36.50
2017-12-23T03:25:19.359Z,36.60
2017-12-23T03:27:49.599Z,36.60
2017-12-23T03:30:18.760Z,36.70
2017-12-23T03:32:48.969Z,36.70
2017-12-23T03:35:17.298Z,36.80
2017-12-23T03:37:49.353Z,36.70
2017-12-23T03:40:17.701Z,36.80
2017-12-23T03:42:46.550Z,36.90
2017-12-23T03:45:14.857Z,36.90
2017-12-23T03:47:57.597Z,36.90
2017-12-23T03:50:28.095Z,37.00
2017-12-23T03:52:56.748Z,37.00
2017-12-23T03:55:25.094Z,37.00
2017-12-23T03:57:53.392Z,37.00
2017-12-23T04:00:22.896Z,37.00
2017-12-23T04:02:51.172Z,37.10
2017-12-23T04:05:20.976Z,37.10
2017-12-23T04:07:50.418Z,37.10
2017-12-23T04:13:10.326Z,37.20
2017-12-23T04:15:39.762Z,37.20
2017-12-23T04:18:08.337Z,37.20
2017-12-23T04:20:39.021Z,37.20
2017-12-23T04:23:07.340Z,37.20
2017-12-23T04:25:36.914Z,37.30
2017-12-23T04:28:08.112Z,37.30
2017-12-23T04:30:37.552Z,37.40
2017-12-23T04:35:48.299Z,37.40
2017-12-23T04:38:24.290Z,37.40
2017-12-23T04:40:52.684Z,37.50
2017-12-23T04:43:21.006Z,37.50
2017-12-23T04:45:50.314Z,37.50
2017-12-23T04:48:26.377Z,37.50
2017-12-23T04:50:55.464Z,37.60
2017-12-23T04:53:28.258Z,37.60
2017-12-23T04:55:58.360Z,37.50
2017-12-23T04:58:28.022Z,37.60
2017-12-23T05:00:56.478Z,37.70
2017-12-23T05:03:24.811Z,37.70
2017-12-23T05:05:55.278Z,37.70
2017-12-23T05:08:23.692Z,37.70
2017-12-23T05:10:52.058Z,37.80
2017-12-23T05:13:20.337Z,37.80
2017-12-23T05:15:48.898Z,37.80
2017-12-23T05:18:19.877Z,37.90
2017-12-23T05:20:48.262Z,37.80
2017-12-23T05:23:17.332Z,38.00
2017-12-23T05:25:46.710Z,38.00
2017-12-23T05:28:16.053Z,38.00
2017-12-23T05:30:45.223Z,38.20
2017-12-23T05:33:14.347Z,38.20
2017-12-23T05:35:51.653Z,38.10
2017-12-23T05:38:28.094Z,38.00
2017-12-23T05:40:57.414Z,38.00
2017-12-23T05:43:25.817Z,37.90
2017-12-23T05:46:14.220Z,37.90
2017-12-23T05:48:42.601Z,37.80
2017-12-23T05:51:11.881Z,37.70
2017-12-23T05:54:00.354Z,37.70
2017-12-23T05:56:29.574Z,37.70
2017-12-23T05:58:57.901Z,37.70
2017-12-23T06:01:26.329Z,37.70
2017-12-23T06:03:54.848Z,37.70
2017-12-23T06:06:23.727Z,37.60
2017-12-23T06:08:52.073Z,37.50
2017-12-23T06:11:21.492Z,37.50
2017-12-23T06:13:54.189Z,37.50
2017-12-23T06:16:24.866Z,37.50
2017-12-23T06:18:53.174Z,37.50
2017-12-23T06:21:21.419Z,37.50
2017-12-23T06:23:54.505Z,37.60
2017-12-23T06:26:24.023Z,37.60
2017-12-23T06:28:57.930Z,37.60
2017-12-23T06:31:26.205Z,37.60
2017-12-23T06:39:55.789Z,37.80
2017-12-23T06:42:24.204Z,37.80
2017-12-23T06:44:57.528Z,38.00
2017-12-23T06:47:27.581Z,37.90
2017-12-23T06:49:59.413Z,38.00
2017-12-23T06:52:33.742Z,37.90
2017-12-23T06:57:37.692Z,38.00
2017-12-23T07:00:06.068Z,38.00
2017-12-23T07:02:34.374Z,38.10
2017-12-23T07:05:03.442Z,38.10
2017-12-23T07:07:31.696Z,38.00
2017-12-23T07:09:59.984Z,38.10
2017-12-23T07:12:28.305Z,38.10
2017-12-23T07:14:57.293Z,38.20
2017-12-23T07:17:26.288Z,38.30
2017-12-23T07:19:55.863Z,38.30
2017-12-23T07:22:31.778Z,38.20
2017-12-23T07:25:00.748Z,38.30
2017-12-23T07:27:31.103Z,38.30
2017-12-23T07:30:00.218Z,38.50
2017-12-23T07:32:28.482Z,38.50
2017-12-23T07:34:56.750Z,38.50
2017-12-23T07:37:38.144Z,38.50
2017-12-23T07:40:09.425Z,38.60
2017-12-23T07:42:39.858Z,38.70
2017-12-23T07:45:17.761Z,38.70
2017-12-23T07:47:46.146Z,38.70
2017-12-23T07:50:14.416Z,38.80
2017-12-23T07:53:04.693Z,38.90
2017-12-23T08:14:33.016Z,40.30
2017-12-23T08:17:01.333Z,40.30
2017-12-23T08:19:29.630Z,40.30
2017-12-23T08:21:57.927Z,40.20
2017-12-23T08:24:27.010Z,39.90
2017-12-23T08:26:56.050Z,39.70
2017-12-23T08:29:24.327Z,39.70
2017-12-23T08:31:52.601Z,39.60
2017-12-23T08:34:20.897Z,39.50
2017-12-23T08:36:49.230Z,39.50
2017-12-23T08:39:18.260Z,39.40
2017-12-23T08:41:46.519Z,39.50
2017-12-23T08:44:14.777Z,39.40
2017-12-23T08:46:43.860Z,39.50
2017-12-23T08:49:12.914Z,39.50
2017-12-23T08:51:41.269Z,39.40
2017-12-23T08:54:09.542Z,39.40
2017-12-23T08:56:37.807Z,39.50
2017-12-23T08:59:06.082Z,39.60
2017-12-23T09:01:34.320Z,39.60
2017-12-23T09:04:03.060Z,39.60
2017-12-23T09:06:31.300Z,39.60
2017-12-23T09:08:59.606Z,39.60
2017-12-23T09:11:27.910Z,39.60
2017-12-23T09:13:56.248Z,39.60
2017-12-23T09:16:24.544Z,39.60
2017-12-23T09:18:52.777Z,39.60
2017-12-23T09:21:21.830Z,39.70
2017-12-23T09:23:50.170Z,39.70
2017-12-23T09:26:18.441Z,39.70
2017-12-23T09:28:46.713Z,39.70
2017-12-23T09:31:15.005Z,40.30
2017-12-23T09:33:43.477Z,39.70
2017-12-23T09:36:11.828Z,39.80
2017-12-23T09:38:41.948Z,39.90
2017-12-23T09:41:11.046Z,39.90
2017-12-23T09:43:40.228Z,39.90
2017-12-23T09:46:10.728Z,39.90
2017-12-23T09:48:43.838Z,40.00
2017-12-23T09:51:13.207Z,40.00
2017-12-23T09:53:42.595Z,39.90
2017-12-23T09:56:11.704Z,39.90
2017-12-23T09:58:40.152Z,39.80
2017-12-23T10:01:08.847Z,40.30
2017-12-23T10:03:37.438Z,39.90
2017-12-23T10:06:06.704Z,39.90
2017-12-23T10:08:35.010Z,39.80
2017-12-23T10:11:03.255Z,39.80
2017-12-23T10:13:32.332Z,39.80
2017-12-23T10:16:00.647Z,39.80
2017-12-23T10:18:28.983Z,40.40
2017-12-23T10:20:57.328Z,39.80
2017-12-23T10:23:25.599Z,39.80
2017-12-23T10:25:54.032Z,39.80
2017-12-23T10:28:23.123Z,39.90
2017-12-23T10:30:52.171Z,39.90
2017-12-23T10:33:20.446Z,39.80
2017-12-23T10:35:48.744Z,39.80
2017-12-23T10:38:17.503Z,39.90
2017-12-23T10:40:45.839Z,39.90
2017-12-23T10:43:14.875Z,40.00
2017-12-23T10:45:43.150Z,40.00
2017-12-23T10:48:12.260Z,40.00
2017-12-23T10:50:41.022Z,40.00
2017-12-23T10:53:09.305Z,40.00
2017-12-23T10:55:37.595Z,40.00
2017-12-23T10:58:06.039Z,40.10
2017-12-23T11:00:34.404Z,40.10
2017-12-23T11:03:02.721Z,40.10
2017-12-23T11:05:31.024Z,40.10
2017-12-23T11:07:59.312Z,40.10
2017-12-23T11:10:28.422Z,40.10
2017-12-23T11:12:58.704Z,40.10
2017-12-23T11:15:27.045Z,40.10
2017-12-23T11:17:55.331Z,40.10
2017-12-23T11:20:24.595Z,40.00
2017-12-23T11:22:52.887Z,40.00
2017-12-23T11:25:21.256Z,40.00
2017-12-23T11:27:49.578Z,40.00
2017-12-23T11:30:17.891Z,40.00
2017-12-23T11:32:46.176Z,40.00
2017-12-23T11:35:15.331Z,40.10
2017-12-23T11:37:43.700Z,40.10
2017-12-23T11:40:12.004Z,40.10
2017-12-23T11:42:41.102Z,40.80
2017-12-23T11:45:10.289Z,40.20
2017-12-23T11:47:38.618Z,40.20
2017-12-23T11:50:06.965Z,40.80
2017-12-23T11:52:35.955Z,40.20
2017-12-23T11:55:04.968Z,40.20
2017-12-23T11:57:33.276Z,40.20
2017-12-23T12:00:01.628Z,40.20
2017-12-23T12:02:30.684Z,40.30
2017-12-23T12:05:00.142Z,40.20
2017-12-23T12:07:29.724Z,40.20
2017-12-23T12:09:58.132Z,40.30
2017-12-23T12:12:26.407Z,40.30
2017-12-23T12:15:15.558Z,40.30
2017-12-23T12:17:43.947Z,40.30
2017-12-23T12:20:14.560Z,40.30
2017-12-23T12:22:44.920Z,40.30
2017-12-23T12:25:14.192Z,40.20
2017-12-23T12:27:43.594Z,40.30
2017-12-23T12:30:34.349Z,40.30
2017-12-23T12:33:04.414Z,40.30
2017-12-23T12:35:35.139Z,40.30
2017-12-23T12:38:07.573Z,40.30
2017-12-23T12:40:36.864Z,40.40
2017-12-23T12:49:09.661Z,40.40
2017-12-23T12:51:44.203Z,40.40
2017-12-23T13:00:59.210Z,40.40
2017-12-23T13:03:28.999Z,40.80
2017-12-23T13:46:32.312Z,40.60
2017-12-23T13:49:01.224Z,40.60
2017-12-23T13:51:29.830Z,40.50
2017-12-23T13:53:58.233Z,40.40
2017-12-23T13:56:27.561Z,40.60
2017-12-23T13:58:56.830Z,40.40
2017-12-23T14:01:25.316Z,40.40
2017-12-23T14:03:54.500Z,41.00
2017-12-23T14:06:23.716Z,40.50
2017-12-23T14:08:52.165Z,40.50
2017-12-23T14:11:20.647Z,40.50
2017-12-23T14:13:49.135Z,40.60
2017-12-23T14:16:17.512Z,40.60
2017-12-23T14:18:45.901Z,40.50
2017-12-23T14:21:14.320Z,40.70
2017-12-23T14:23:42.793Z,40.60
2017-12-23T14:26:11.232Z,40.60
2017-12-23T14:28:39.715Z,40.50
2017-12-23T14:31:08.724Z,40.60
2017-12-23T14:33:37.005Z,40.60
2017-12-23T14:36:05.323Z,40.60
2017-12-23T14:38:33.609Z,40.60
2017-12-23T14:41:01.967Z,40.60
2017-12-23T14:43:30.272Z,40.70
2017-12-23T14:45:58.604Z,40.80
2017-12-23T14:48:26.987Z,40.70
2017-12-23T14:50:55.299Z,40.70
2017-12-23T14:57:04.318Z,40.70
2017-12-23T14:59:56.751Z,40.80
2017-12-23T15:02:34.442Z,40.90
2017-12-23T15:07:49.797Z,40.90
2017-12-23T15:10:18.107Z,40.90
2017-12-23T15:12:46.324Z,40.90
2017-12-23T15:15:16.204Z,40.90
2017-12-23T15:17:44.472Z,40.90
2017-12-23T15:20:12.819Z,40.90
2017-12-23T15:26:10.630Z,40.90
2017-12-23T15:28:38.919Z,40.90
2017-12-23T15:31:07.464Z,41.00
2017-12-23T15:33:35.767Z,41.00
2017-12-23T15:36:04.082Z,41.00
2017-12-23T15:38:32.374Z,41.00
2017-12-23T15:41:00.682Z,40.90
2017-12-23T15:43:29.765Z,41.00
2017-12-23T15:45:59.969Z,41.00
2017-12-23T15:48:28.383Z,41.40
2017-12-23T15:50:56.665Z,40.90
2017-12-23T15:53:24.960Z,41.00
2017-12-23T15:55:53.349Z,40.90
2017-12-23T15:58:21.659Z,40.90
2017-12-23T16:00:50.090Z,40.90
2017-12-23T16:03:18.441Z,41.00
2017-12-23T16:05:47.597Z,41.00
2017-12-23T16:08:15.844Z,41.00
2017-12-23T16:10:44.630Z,41.00
2017-12-23T16:13:12.912Z,41.00
2017-12-23T16:15:41.206Z,41.00
2017-12-23T16:18:09.517Z,41.10
2017-12-23T16:20:38.553Z,41.10
2017-12-23T16:23:06.866Z,41.10
2017-12-23T16:25:35.206Z,41.00
2017-12-23T16:28:03.536Z,41.10
2017-12-23T16:30:32.723Z,41.10
2017-12-23T16:33:01.107Z,41.10
2017-12-23T16:35:29.372Z,41.10
2017-12-23T16:37:57.646Z,41.00
2017-12-23T16:40:26.052Z,41.00
2017-12-23T16:42:55.074Z,41.30
2017-12-23T16:45:23.346Z,41.00
2017-12-23T16:47:52.173Z,41.00
2017-12-23T16:50:20.478Z,41.10
2017-12-23T16:52:49.821Z,41.10
2017-12-23T16:55:18.143Z,41.00
2017-12-23T16:57:46.560Z,41.00
2017-12-23T17:00:14.815Z,41.10
2017-12-23T17:02:43.867Z,41.10
2017-12-23T17:05:12.179Z,41.00
2017-12-23T17:07:40.471Z,41.10
2017-12-23T17:10:08.744Z,41.10
2017-12-23T17:12:37.864Z,41.20
2017-12-23T17:15:06.120Z,41.20
2017-12-23T17:17:34.383Z,41.20
2017-12-23T17:20:02.636Z,41.20
2017-12-23T17:22:30.907Z,41.20
2017-12-23T17:25:00.201Z,41.30
2017-12-23T17:27:28.441Z,41.20
2017-12-23T17:30:14.533Z,41.30
2017-12-23T17:32:42.843Z,41.30
2017-12-23T17:35:11.170Z,41.30
2017-12-23T17:37:39.483Z,41.30
2017-12-23T17:40:07.810Z,41.30
2017-12-23T17:42:36.811Z,41.40
2017-12-23T17:45:05.154Z,41.30
2017-12-23T17:47:33.546Z,41.40
2017-12-23T17:50:02.798Z,41.30
2017-12-23T17:52:31.141Z,41.30
2017-12-23T17:54:59.447Z,41.30
2017-12-23T17:57:27.729Z,41.30
2017-12-23T17:59:55.968Z,41.30
2017-12-23T18:02:24.178Z,41.30
2017-12-23T18:04:52.410Z,41.40
2017-12-23T18:07:20.687Z,41.40
2017-12-23T18:09:49.099Z,41.30
2017-12-23T18:12:17.326Z,41.30
2017-12-23T18:14:45.546Z,41.30
2017-12-23T18:17:13.788Z,41.30
2017-12-23T18:19:42.019Z,41.30
2017-12-23T18:22:10.263Z,41.30
2017-12-23T18:24:38.487Z,41.30
2017-12-23T18:27:07.481Z,41.50
2017-12-23T18:29:35.784Z,41.40
2017-12-23T18:32:04.132Z,41.40
2017-12-23T18:34:32.328Z,41.50
2017-12-23T18:37:00.651Z,41.50
2017-12-23T18:39:28.894Z,41.50
2017-12-23T18:41:57.109Z,41.50
2017-12-23T18:44:25.399Z,41.50
2017-12-23T18:46:53.654Z,41.50
2017-12-23T18:49:21.931Z,41.50
2017-12-23T18:51:50.166Z,41.50
2017-12-23T18:54:18.385Z,41.50
2017-12-23T18:56:46.668Z,41.50
2017-12-23T18:59:14.896Z,41.60
2017-12-23T19:01:43.158Z,41.60
2017-12-23T19:04:11.403Z,41.50
2017-12-23T19:06:39.640Z,41.60
2017-12-23T19:09:07.871Z,41.50
2017-12-23T19:11:36.877Z,41.50
2017-12-23T19:14:05.337Z,41.40
2017-12-23T19:16:52.048Z,41.40
2017-12-23T19:19:21.089Z,42.00
2017-12-23T19:21:49.348Z,41.40
2017-12-23T19:24:17.599Z,41.40
2017-12-23T19:26:46.438Z,41.40
2017-12-23T19:29:14.738Z,41.40
2017-12-23T19:31:43.767Z,41.50
2017-12-23T19:34:13.934Z,41.50
2017-12-23T19:36:43.182Z,41.40
2017-12-23T19:39:11.607Z,41.40
2017-12-23T19:41:39.868Z,41.40
2017-12-23T19:44:08.122Z,41.30
2017-12-23T19:46:37.155Z,41.40
2017-12-23T19:49:05.401Z,41.30
2017-12-23T19:51:33.714Z,42.00
2017-12-23T19:54:02.195Z,41.40
2017-12-23T19:56:30.465Z,41.50
2017-12-23T19:58:58.784Z,41.50
2017-12-23T20:01:27.165Z,41.50
2017-12-23T20:03:55.427Z,41.60
2017-12-23T20:06:23.814Z,41.60
2017-12-23T20:08:52.066Z,41.50
2017-12-23T20:11:21.100Z,41.50
2017-12-23T20:13:49.361Z,41.50
2017-12-23T20:16:17.672Z,41.50
2017-12-23T20:18:45.916Z,41.50
2017-12-23T20:21:14.279Z,41.50
2017-12-23T20:23:42.619Z,41.50
2017-12-23T20:26:10.914Z,41.60
2017-12-23T20:28:39.217Z,41.60
2017-12-23T20:31:07.531Z,41.60
2017-12-23T20:33:35.839Z,41.60
2017-12-23T20:36:04.869Z,42.10
2017-12-23T20:38:33.145Z,41.60
2017-12-23T20:41:01.420Z,41.50
2017-12-23T20:43:29.773Z,41.50
2017-12-23T20:45:58.072Z,41.50
2017-12-23T20:48:26.321Z,41.50
2017-12-23T20:50:55.362Z,41.50
2017-12-23T20:53:23.607Z,41.50
2017-12-23T20:55:51.862Z,41.50
2017-12-23T20:58:20.116Z,41.60
2017-12-23T21:00:48.363Z,41.60
2017-12-23T21:03:16.723Z,41.60
2017-12-23T21:05:44.986Z,41.50
2017-12-23T21:08:13.256Z,41.50
2017-12-23T21:10:41.509Z,41.50
2017-12-23T21:13:09.815Z,41.60
2017-12-23T21:15:38.198Z,41.60
2017-12-23T21:18:06.680Z,41.40
2017-12-23T21:20:34.957Z,41.50
2017-12-23T21:23:03.191Z,41.40
2017-12-23T21:25:32.224Z,41.50
2017-12-23T21:28:00.567Z,41.50
2017-12-23T21:30:29.582Z,41.50
2017-12-23T21:32:57.839Z,41.50
2017-12-23T21:35:26.122Z,41.50
2017-12-23T21:37:54.427Z,41.50
2017-12-23T21:40:22.687Z,41.50
2017-12-23T21:42:50.960Z,41.50
2017-12-23T21:45:19.191Z,41.50
2017-12-23T21:47:47.463Z,41.50
2017-12-23T21:50:15.760Z,41.50
2017-12-23T21:52:44.792Z,41.60
2017-12-23T21:55:13.129Z,41.50
2017-12-23T21:57:42.176Z,41.50
2017-12-23T22:00:10.499Z,41.40
2017-12-23T22:02:39.538Z,41.50
2017-12-23T22:05:07.853Z,41.50
2017-12-23T22:07:36.138Z,41.60
2017-12-23T22:10:04.434Z,41.70
2017-12-23T22:12:32.819Z,41.80
2017-12-23T22:15:01.077Z,41.90
2017-12-23T22:17:30.107Z,42.00
2017-12-23T22:19:59.161Z,42.00
2017-12-23T22:22:29.239Z,42.10
2017-12-23T22:24:57.504Z,42.00
2017-12-23T22:27:25.774Z,42.10
2017-12-23T22:29:54.008Z,42.10
2017-12-23T22:32:22.333Z,42.20
2017-12-23T22:34:50.723Z,42.20
2017-12-23T22:37:19.031Z,42.20
2017-12-23T22:39:48.588Z,42.20
2017-12-23T22:42:34.684Z,42.20
2017-12-23T22:45:03.022Z,42.20
2017-12-23T22:47:31.299Z,42.30
2017-12-23T22:49:59.581Z,42.30
2017-12-23T22:52:28.581Z,42.40
2017-12-23T22:54:56.992Z,42.40
2017-12-23T22:57:25.251Z,42.40
2017-12-23T22:59:53.614Z,42.30
2017-12-23T23:02:21.923Z,42.40
2017-12-23T23:04:50.243Z,42.40
2017-12-23T23:07:18.557Z,42.30
2017-12-23T23:09:47.774Z,42.30
2017-12-23T23:15:26.710Z,42.40
2017-12-23T23:17:57.147Z,42.40
2017-12-23T23:20:25.408Z,42.40
2017-12-23T23:22:53.764Z,42.40
2017-12-23T23:25:22.609Z,42.40
2017-12-23T23:27:50.975Z,42.40
2017-12-23T23:30:19.198Z,42.40
2017-12-23T23:32:47.457Z,42.40
2017-12-23T23:35:15.759Z,42.50
2017-12-23T23:37:44.192Z,42.40
2017-12-23T23:40:12.498Z,42.50
2017-12-23T23:42:40.912Z,42.50
2017-12-23T23:45:09.144Z,42.40
2017-12-23T23:47:38.189Z,43.10
2017-12-23T23:50:06.441Z,42.50
2017-12-23T23:52:34.811Z,42.40
2017-12-23T23:55:03.053Z,42.50
2017-12-23T23:57:32.125Z,42.50
